Pagina principală
METAR-TAF:

METAR-TAF

Aeroporturi :

Tacoma Narrows Airport

Tacoma, Washington, Statele Unite ale Americii

Latitudine: 47-16-03N, longitudine: 122-34-34W, elevație: 96 m

Observații meteo curente

Raportul a fost făcut în urmă cu 53 de minute, la 19:53 UTC
Vânt 5 kt de la Nord-vest
Temperatură 14°C
Umiditate 67%
Presiune 1025 hPa
Vizibilitate: 16.1 km
Cer senin

METAR: KTIW 201953Z 31005KT 10SM CLR 14/08 A3028 RMK AO2 SLP253 T01440078

Ora: 13:46 (20:46 UTC)


TAF: lipsă

Observații și prognoze meteo pentru peste 4.000 de aeroporturi (rapoarte METAR și TAF).

Stațiile disponibile sunt reprezentate pe hartă prin puncte galbene și roșii.

Țineți indicatorul mouse-ului pe punctul dorit pentru a vedea denumirea stației.

Apoi, faceți clic pentru a vedea observațiile și prognozele meteorologice.

Pentru a schimba harta: Pentru mărire, faceți clic pe butoanele verzi cu cruce neagră; pentru micșorare, pe butonul verde cu o liniuță; pentru hărți învecinate, pe săgețile verzi.


METAR-TAF: